sensor_id;sensor_type;location;lat;lon;timestamp;pressure;altitude;pressure_sealevel;temperature;humidity
41234;BME280;26968;42.686;23.352;2023-03-16T00:02:09;94315.91;;;1.83;86.08
41234;BME280;26968;42.686;23.352;2023-03-16T00:04:35;94407.66;;;2.37;85.70
41234;BME280;26968;42.686;23.352;2023-03-16T00:07:05;94384.97;;;2.20;84.89
41234;BME280;26968;42.686;23.352;2023-03-16T00:09:31;94380.75;;;2.19;86.08
41234;BME280;26968;42.686;23.352;2023-03-16T00:11:57;94430.13;;;2.32;85.42
41234;BME280;26968;42.686;23.352;2023-03-16T00:14:24;94370.66;;;1.89;85.26
41234;BME280;26968;42.686;23.352;2023-03-16T00:16:49;94375.72;;;1.96;85.93
41234;BME280;26968;42.686;23.352;2023-03-16T00:19:15;94364.94;;;1.76;85.86
41234;BME280;26968;42.686;23.352;2023-03-16T00:21:40;94423.53;;;2.30;86.17
41234;BME280;26968;42.686;23.352;2023-03-16T00:24:06;94348.47;;;1.75;85.69
41234;BME280;26968;42.686;23.352;2023-03-16T00:26:31;94370.81;;;1.83;85.31
41234;BME280;26968;42.686;23.352;2023-03-16T00:28:57;94327.97;;;1.50;85.56
41234;BME280;26968;42.686;23.352;2023-03-16T00:31:22;94425.47;;;2.01;86.43
41234;BME280;26968;42.686;23.352;2023-03-16T00:33:49;94423.81;;;1.95;87.03
41234;BME280;26968;42.686;23.352;2023-03-16T00:36:15;94426.59;;;2.05;85.58
41234;BME280;26968;42.686;23.352;2023-03-16T00:38:41;94424.78;;;1.89;85.72
41234;BME280;26968;42.686;23.352;2023-03-16T00:41:12;94338.75;;;1.09;85.08
41234;BME280;26968;42.686;23.352;2023-03-16T00:43:40;94342.97;;;1.10;85.28
41234;BME280;26968;42.686;23.352;2023-03-16T00:46:11;94449.38;;;1.76;86.76
41234;BME280;26968;42.686;23.352;2023-03-16T00:48:39;94362.00;;;1.39;87.46
41234;BME280;26968;42.686;23.352;2023-03-16T00:51:12;94421.34;;;1.72;88.14
41234;BME280;26968;42.686;23.352;2023-03-16T00:53:40;94373.50;;;1.54;87.86
41234;BME280;26968;42.686;23.352;2023-03-16T00:56:06;94414.22;;;1.84;87.41
41234;BME280;26968;42.686;23.352;2023-03-16T00:58:33;94412.88;;;1.81;87.34
41234;BME280;26968;42.686;23.352;2023-03-16T01:01:05;94382.53;;;1.64;88.10
41234;BME280;26968;42.686;23.352;2023-03-16T01:03:31;94356.16;;;1.65;88.08
41234;BME280;26968;42.686;23.352;2023-03-16T01:05:57;94435.38;;;2.16;87.59
41234;BME280;26968;42.686;23.352;2023-03-16T01:08:26;94388.78;;;1.79;86.65
41234;BME280;26968;42.686;23.352;2023-03-16T01:10:54;94446.00;;;2.09;86.42
41234;BME280;26968;42.686;23.352;2023-03-16T01:13:21;94339.50;;;1.21;87.28
41234;BME280;26968;42.686;23.352;2023-03-16T01:15:49;94353.38;;;1.22;86.76
41234;BME280;26968;42.686;23.352;2023-03-16T01:18:15;94374.13;;;1.45;87.71
41234;BME280;26968;42.686;23.352;2023-03-16T01:20:40;94294.69;;;0.96;87.34
41234;BME280;26968;42.686;23.352;2023-03-16T01:23:13;94435.22;;;1.89;88.02
41234;BME280;26968;42.686;23.352;2023-03-16T01:25:38;94449.63;;;1.91;87.36
41234;BME280;26968;42.686;23.352;2023-03-16T01:28:03;94388.88;;;1.51;86.80
41234;BME280;26968;42.686;23.352;2023-03-16T01:30:29;94447.50;;;1.88;87.66
41234;BME280;26968;42.686;23.352;2023-03-16T01:32:54;94359.53;;;1.32;85.96
41234;BME280;26968;42.686;23.352;2023-03-16T01:35:20;94376.50;;;1.30;86.33
41234;BME280;26968;42.686;23.352;2023-03-16T01:37:46;94392.81;;;1.08;85.17
41234;BME280;26968;42.686;23.352;2023-03-16T01:40:11;94474.97;;;1.46;85.48
41234;BME280;26968;42.686;23.352;2023-03-16T01:42:45;94462.41;;;1.43;86.72
41234;BME280;26968;42.686;23.352;2023-03-16T01:48:26;94479.69;;;1.44;85.71
41234;BME280;26968;42.686;23.352;2023-03-16T01:50:54;94469.91;;;1.39;85.20
41234;BME280;26968;42.686;23.352;2023-03-16T01:53:21;94488.81;;;1.30;85.07
41234;BME280;26968;42.686;23.352;2023-03-16T01:55:49;94407.88;;;0.90;85.62
41234;BME280;26968;42.686;23.352;2023-03-16T01:58:16;94403.59;;;0.84;85.60
41234;BME280;26968;42.686;23.352;2023-03-16T02:00:42;94426.97;;;1.07;86.62
41234;BME280;26968;42.686;23.352;2023-03-16T02:03:13;94445.25;;;1.07;86.08
41234;BME280;26968;42.686;23.352;2023-03-16T02:05:49;94420.09;;;1.01;86.31
41234;BME280;26968;42.686;23.352;2023-03-16T02:08:17;94392.16;;;0.73;85.73
41234;BME280;26968;42.686;23.352;2023-03-16T02:10:44;94526.94;;;1.31;85.45
41234;BME280;26968;42.686;23.352;2023-03-16T02:13:10;94321.50;;;0.11;86.12
41234;BME280;26968;42.686;23.352;2023-03-16T02:15:36;94423.84;;;0.93;86.95
41234;BME280;26968;42.686;23.352;2023-03-16T02:18:03;94457.47;;;1.30;87.64
41234;BME280;26968;42.686;23.352;2023-03-16T02:22:59;94481.44;;;1.27;87.26
41234;BME280;26968;42.686;23.352;2023-03-16T02:25:42;94495.28;;;1.27;87.39
41234;BME280;26968;42.686;23.352;2023-03-16T02:28:25;94406.25;;;0.60;87.55
41234;BME280;26968;42.686;23.352;2023-03-16T02:30:53;94442.16;;;0.82;87.65
41234;BME280;26968;42.686;23.352;2023-03-16T02:33:19;94507.34;;;1.16;88.31
41234;BME280;26968;42.686;23.352;2023-03-16T02:35:45;94503.75;;;1.06;88.87
41234;BME280;26968;42.686;23.352;2023-03-16T02:38:11;94458.97;;;0.74;88.82
41234;BME280;26968;42.686;23.352;2023-03-16T02:40:36;94527.44;;;1.16;89.72
41234;BME280;26968;42.686;23.352;2023-03-16T02:43:06;94483.69;;;0.95;90.13
41234;BME280;26968;42.686;23.352;2023-03-16T02:45:50;94531.56;;;1.12;89.57
41234;BME280;26968;42.686;23.352;2023-03-16T02:48:28;94381.34;;;0.18;90.26
41234;BME280;26968;42.686;23.352;2023-03-16T02:50:56;94446.19;;;0.49;89.83
41234;BME280;26968;42.686;23.352;2023-03-16T02:53:21;94455.59;;;0.50;90.79
41234;BME280;26968;42.686;23.352;2023-03-16T02:55:47;94449.47;;;0.56;90.27
41234;BME280;26968;42.686;23.352;2023-03-16T02:58:14;94522.75;;;0.90;90.62
41234;BME280;26968;42.686;23.352;2023-03-16T03:00:40;94439.72;;;0.40;90.76
41234;BME280;26968;42.686;23.352;2023-03-16T03:03:06;94526.50;;;0.82;90.76
41234;BME280;26968;42.686;23.352;2023-03-16T03:05:33;94521.75;;;0.67;91.60
41234;BME280;26968;42.686;23.352;2023-03-16T03:07:59;94528.97;;;0.77;90.64
41234;BME280;26968;42.686;23.352;2023-03-16T03:10:25;94482.25;;;0.41;91.33
41234;BME280;26968;42.686;23.352;2023-03-16T03:12:50;94450.97;;;0.17;91.48
41234;BME280;26968;42.686;23.352;2023-03-16T03:15:16;94473.78;;;0.45;91.39
41234;BME280;26968;42.686;23.352;2023-03-16T03:17:42;94505.06;;;0.45;90.91
41234;BME280;26968;42.686;23.352;2023-03-16T03:20:11;94415.47;;;-0.07;91.07
41234;BME280;26968;42.686;23.352;2023-03-16T03:22:40;94547.16;;;0.72;90.72
41234;BME280;26968;42.686;23.352;2023-03-16T03:25:06;94551.81;;;0.82;91.47
41234;BME280;26968;42.686;23.352;2023-03-16T03:27:33;94393.47;;;-0.46;90.66
41234;BME280;26968;42.686;23.352;2023-03-16T03:29:58;94514.13;;;0.43;90.54
41234;BME280;26968;42.686;23.352;2023-03-16T03:32:24;94549.63;;;0.55;91.08
41234;BME280;26968;42.686;23.352;2023-03-16T03:34:49;94469.06;;;0.00;90.17
41234;BME280;26968;42.686;23.352;2023-03-16T03:37:16;94438.69;;;-0.17;90.54
41234;BME280;26968;42.686;23.352;2023-03-16T03:39:41;94565.41;;;0.49;90.68
41234;BME280;26968;42.686;23.352;2023-03-16T03:42:07;94467.94;;;-0.04;90.86
41234;BME280;26968;42.686;23.352;2023-03-16T03:44:32;94576.06;;;0.47;90.77
41234;BME280;26968;42.686;23.352;2023-03-16T03:47:01;94508.97;;;0.01;90.91
41234;BME280;26968;42.686;23.352;2023-03-16T03:49:26;94460.09;;;-0.27;90.33
41234;BME280;26968;42.686;23.352;2023-03-16T03:51:52;94532.94;;;0.21;90.69
41234;BME280;26968;42.686;23.352;2023-03-16T03:54:17;94559.81;;;0.33;90.73
41234;BME280;26968;42.686;23.352;2023-03-16T03:56:42;94591.16;;;0.45;90.44
41234;BME280;26968;42.686;23.352;2023-03-16T03:59:08;94590.13;;;0.46;90.60
41234;BME280;26968;42.686;23.352;2023-03-16T04:01:33;94539.84;;;0.16;90.30
41234;BME280;26968;42.686;23.352;2023-03-16T04:03:59;94483.19;;;-0.30;89.58
41234;BME280;26968;42.686;23.352;2023-03-16T04:06:24;94504.41;;;-0.15;90.30
41234;BME280;26968;42.686;23.352;2023-03-16T04:08:50;94597.03;;;0.41;90.43
41234;BME280;26968;42.686;23.352;2023-03-16T04:11:18;94485.34;;;-0.27;90.61
41234;BME280;26968;42.686;23.352;2023-03-16T04:13:43;94549.03;;;0.07;89.98
41234;BME280;26968;42.686;23.352;2023-03-16T04:16:09;94571.84;;;0.23;90.37
41234;BME280;26968;42.686;23.352;2023-03-16T04:18:34;94519.28;;;-0.16;90.04
41234;BME280;26968;42.686;23.352;2023-03-16T04:21:07;94588.78;;;0.44;91.29
41234;BME280;26968;42.686;23.352;2023-03-16T04:23:36;94559.69;;;0.17;90.98
41234;BME280;26968;42.686;23.352;2023-03-16T04:26:02;94523.50;;;-0.03;90.49
41234;BME280;26968;42.686;23.352;2023-03-16T04:28:30;94600.81;;;0.45;90.17
41234;BME280;26968;42.686;23.352;2023-03-16T04:31:02;94611.41;;;0.31;90.74
41234;BME280;26968;42.686;23.352;2023-03-16T04:33:29;94560.38;;;0.12;89.95
41234;BME280;26968;42.686;23.352;2023-03-16T04:35:57;94594.75;;;0.32;90.36
41234;BME280;26968;42.686;23.352;2023-03-16T04:38:22;94563.66;;;0.08;89.19
41234;BME280;26968;42.686;23.352;2023-03-16T04:40:48;94548.19;;;-0.06;89.77
41234;BME280;26968;42.686;23.352;2023-03-16T04:43:13;94493.59;;;-0.42;89.72
41234;BME280;26968;42.686;23.352;2023-03-16T04:45:38;94634.47;;;0.46;89.69
41234;BME280;26968;42.686;23.352;2023-03-16T04:48:04;94514.50;;;-0.19;90.06
41234;BME280;26968;42.686;23.352;2023-03-16T04:50:30;94632.00;;;0.51;90.00
41234;BME280;26968;42.686;23.352;2023-03-16T04:52:55;94644.94;;;0.58;90.22
41234;BME280;26968;42.686;23.352;2023-03-16T04:55:21;94575.56;;;0.15;89.29
41234;BME280;26968;42.686;23.352;2023-03-16T04:57:47;94567.22;;;-0.05;88.44
41234;BME280;26968;42.686;23.352;2023-03-16T05:00:13;94553.50;;;-0.12;88.83
41234;BME280;26968;42.686;23.352;2023-03-16T05:02:46;94629.44;;;0.33;89.14
41234;BME280;26968;42.686;23.352;2023-03-16T05:05:13;94629.78;;;0.25;89.08
41234;BME280;26968;42.686;23.352;2023-03-16T05:07:40;94570.94;;;-0.13;88.63
41234;BME280;26968;42.686;23.352;2023-03-16T05:10:07;94615.03;;;0.19;88.87
41234;BME280;26968;42.686;23.352;2023-03-16T05:12:33;94562.09;;;-0.23;88.79
41234;BME280;26968;42.686;23.352;2023-03-16T05:14:58;94666.66;;;0.40;88.20
41234;BME280;26968;42.686;23.352;2023-03-16T05:17:23;94583.84;;;-0.18;87.94
41234;BME280;26968;42.686;23.352;2023-03-16T05:19:49;94497.63;;;-0.76;88.77
41234;BME280;26968;42.686;23.352;2023-03-16T05:22:15;94534.56;;;-0.49;88.32
41234;BME280;26968;42.686;23.352;2023-03-16T05:24:40;94612.31;;;-0.16;88.00
41234;BME280;26968;42.686;23.352;2023-03-16T05:27:14;94573.94;;;-0.27;88.29
41234;BME280;26968;42.686;23.352;2023-03-16T05:29:43;94325.66;;;-2.01;87.81
41234;BME280;26968;42.686;23.352;2023-03-16T05:32:18;94166.78;;;-3.07;87.31
41234;BME280;26968;42.686;23.352;2023-03-16T05:34:44;94631.50;;;0.01;88.51
41234;BME280;26968;42.686;23.352;2023-03-16T05:37:09;94565.03;;;-0.20;89.17
41234;BME280;26968;42.686;23.352;2023-03-16T05:39:35;94568.31;;;-0.24;88.09
41234;BME280;26968;42.686;23.352;2023-03-16T05:42:00;94694.47;;;0.46;88.13
41234;BME280;26968;42.686;23.352;2023-03-16T05:44:26;94658.91;;;0.22;88.15
41234;BME280;26968;42.686;23.352;2023-03-16T05:46:51;94614.84;;;0.02;88.99
41234;BME280;26968;42.686;23.352;2023-03-16T05:49:17;94683.66;;;0.31;88.14
41234;BME280;26968;42.686;23.352;2023-03-16T05:51:42;94625.59;;;-0.06;88.37
41234;BME280;26968;42.686;23.352;2023-03-16T05:54:07;94586.63;;;-0.31;88.23
41234;BME280;26968;42.686;23.352;2023-03-16T05:56:33;94688.78;;;0.37;89.04
41234;BME280;26968;42.686;23.352;2023-03-16T05:58:59;94713.69;;;0.52;89.30
41234;BME280;26968;42.686;23.352;2023-03-16T06:01:24;94712.09;;;0.51;88.70
41234;BME280;26968;42.686;23.352;2023-03-16T06:03:51;94618.66;;;-0.12;89.82
41234;BME280;26968;42.686;23.352;2023-03-16T06:06:18;94640.72;;;-0.15;89.49
41234;BME280;26968;42.686;23.352;2023-03-16T06:08:46;94719.78;;;0.46;89.75
41234;BME280;26968;42.686;23.352;2023-03-16T06:11:11;94626.06;;;-0.27;89.09
41234;BME280;26968;42.686;23.352;2023-03-16T06:13:37;94665.47;;;-0.06;88.63
41234;BME280;26968;42.686;23.352;2023-03-16T06:16:03;94586.78;;;-0.44;89.45
41234;BME280;26968;42.686;23.352;2023-03-16T06:18:30;94740.41;;;0.47;89.26
41234;BME280;26968;42.686;23.352;2023-03-16T06:20:56;94712.78;;;0.28;89.30
41234;BME280;26968;42.686;23.352;2023-03-16T06:23:21;94581.03;;;-0.46;89.34
41234;BME280;26968;42.686;23.352;2023-03-16T06:25:47;94665.38;;;0.19;90.23
41234;BME280;26968;42.686;23.352;2023-03-16T06:28:13;94699.56;;;0.41;89.31
41234;BME280;26968;42.686;23.352;2023-03-16T06:30:39;94628.47;;;0.04;88.55
41234;BME280;26968;42.686;23.352;2023-03-16T06:33:05;94633.59;;;0.11;88.45
41234;BME280;26968;42.686;23.352;2023-03-16T06:35:30;94764.50;;;0.91;87.86
41234;BME280;26968;42.686;23.352;2023-03-16T06:37:56;94629.97;;;0.12;86.78
41234;BME280;26968;42.686;23.352;2023-03-16T06:40:21;94655.28;;;0.23;87.36
41234;BME280;26968;42.686;23.352;2023-03-16T06:42:47;94678.91;;;0.39;85.45
41234;BME280;26968;42.686;23.352;2023-03-16T06:45:12;94764.72;;;0.89;86.21
41234;BME280;26968;42.686;23.352;2023-03-16T06:47:39;94567.25;;;-0.53;85.60
41234;BME280;26968;42.686;23.352;2023-03-16T06:50:05;94653.53;;;0.05;85.71
41234;BME280;26968;42.686;23.352;2023-03-16T06:52:31;94677.72;;;0.24;85.72
41234;BME280;26968;42.686;23.352;2023-03-16T06:54:56;94695.25;;;0.35;86.17
41234;BME280;26968;42.686;23.352;2023-03-16T06:57:23;94683.13;;;0.11;85.00
41234;BME280;26968;42.686;23.352;2023-03-16T06:59:49;94685.63;;;0.17;84.72
41234;BME280;26968;42.686;23.352;2023-03-16T07:02:15;94678.19;;;0.21;86.00
41234;BME280;26968;42.686;23.352;2023-03-16T07:04:41;94671.81;;;0.17;85.38
41234;BME280;26968;42.686;23.352;2023-03-16T07:07:06;94795.75;;;0.97;86.14
41234;BME280;26968;42.686;23.352;2023-03-16T07:09:33;94809.72;;;1.03;86.22
41234;BME280;26968;42.686;23.352;2023-03-16T07:11:58;94753.84;;;0.62;85.71
41234;BME280;26968;42.686;23.352;2023-03-16T07:14:23;94702.09;;;0.18;85.54
41234;BME280;26968;42.686;23.352;2023-03-16T07:16:50;94796.19;;;0.94;87.39
41234;BME280;26968;42.686;23.352;2023-03-16T07:19:17;94760.25;;;0.66;86.94
41234;BME280;26968;42.686;23.352;2023-03-16T07:21:43;94754.75;;;0.56;86.43
41234;BME280;26968;42.686;23.352;2023-03-16T07:24:09;94665.25;;;0.14;86.30
41234;BME280;26968;42.686;23.352;2023-03-16T07:26:35;94785.16;;;0.92;86.04
41234;BME280;26968;42.686;23.352;2023-03-16T07:29:02;94766.16;;;0.73;86.61
41234;BME280;26968;42.686;23.352;2023-03-16T07:31:30;94834.75;;;0.92;86.25
41234;BME280;26968;42.686;23.352;2023-03-16T07:33:57;94816.16;;;0.89;87.02
41234;BME280;26968;42.686;23.352;2023-03-16T07:36:22;94730.03;;;0.29;86.55
41234;BME280;26968;42.686;23.352;2023-03-16T07:38:48;94809.66;;;0.80;86.00
41234;BME280;26968;42.686;23.352;2023-03-16T07:41:13;94852.22;;;1.10;86.38
41234;BME280;26968;42.686;23.352;2023-03-16T07:43:38;94849.59;;;1.10;85.87
41234;BME280;26968;42.686;23.352;2023-03-16T07:46:04;94843.47;;;1.16;85.49
41234;BME280;26968;42.686;23.352;2023-03-16T07:48:30;94743.78;;;0.66;84.88
41234;BME280;26968;42.686;23.352;2023-03-16T07:50:56;94824.44;;;1.27;85.73
41234;BME280;26968;42.686;23.352;2023-03-16T07:53:22;94731.22;;;0.86;85.03
41234;BME280;26968;42.686;23.352;2023-03-16T07:55:47;94782.69;;;0.97;82.99
41234;BME280;26968;42.686;23.352;2023-03-16T07:58:13;94796.75;;;0.96;82.85
41234;BME280;26968;42.686;23.352;2023-03-16T08:00:39;94802.38;;;1.23;83.52
41234;BME280;26968;42.686;23.352;2023-03-16T08:03:05;94727.97;;;1.02;85.63
41234;BME280;26968;42.686;23.352;2023-03-16T08:05:30;94749.91;;;1.13;83.64
41234;BME280;26968;42.686;23.352;2023-03-16T08:07:59;94738.03;;;0.87;83.09
41234;BME280;26968;42.686;23.352;2023-03-16T08:10:26;94741.81;;;1.03;82.64
41234;BME280;26968;42.686;23.352;2023-03-16T08:12:51;94792.28;;;1.27;81.87
41234;BME280;26968;42.686;23.352;2023-03-16T08:15:18;94845.25;;;1.45;82.23
41234;BME280;26968;42.686;23.352;2023-03-16T08:17:44;94770.50;;;0.80;81.70
41234;BME280;26968;42.686;23.352;2023-03-16T08:20:10;94811.38;;;1.27;83.54
41234;BME280;26968;42.686;23.352;2023-03-16T08:22:39;94840.47;;;1.42;83.01
41234;BME280;26968;42.686;23.352;2023-03-16T08:25:06;94874.13;;;1.62;82.82
41234;BME280;26968;42.686;23.352;2023-03-16T08:27:35;94804.44;;;1.21;82.62
41234;BME280;26968;42.686;23.352;2023-03-16T08:30:04;94731.75;;;0.65;83.64
41234;BME280;26968;42.686;23.352;2023-03-16T08:32:31;94799.81;;;0.93;82.76
41234;BME280;26968;42.686;23.352;2023-03-16T08:34:56;94776.47;;;0.98;83.63
41234;BME280;26968;42.686;23.352;2023-03-16T08:37:23;94753.69;;;0.75;82.98
41234;BME280;26968;42.686;23.352;2023-03-16T08:39:48;94792.94;;;1.10;82.12
41234;BME280;26968;42.686;23.352;2023-03-16T08:42:16;94776.22;;;1.00;82.39
41234;BME280;26968;42.686;23.352;2023-03-16T08:44:41;94865.97;;;1.70;82.71
41234;BME280;26968;42.686;23.352;2023-03-16T08:47:08;94758.63;;;0.95;80.08
41234;BME280;26968;42.686;23.352;2023-03-16T08:49:34;94757.69;;;0.90;81.79
41234;BME280;26968;42.686;23.352;2023-03-16T08:52:01;94799.09;;;1.28;80.34
41234;BME280;26968;42.686;23.352;2023-03-16T08:54:26;94735.47;;;0.99;81.28
41234;BME280;26968;42.686;23.352;2023-03-16T08:56:52;94778.97;;;1.16;79.13
41234;BME280;26968;42.686;23.352;2023-03-16T08:59:18;94857.91;;;1.83;80.37
41234;BME280;26968;42.686;23.352;2023-03-16T09:01:45;94857.56;;;1.80;80.28
41234;BME280;26968;42.686;23.352;2023-03-16T09:04:10;94710.94;;;0.88;78.90
41234;BME280;26968;42.686;23.352;2023-03-16T09:06:37;94724.91;;;1.17;79.88
41234;BME280;26968;42.686;23.352;2023-03-16T09:09:03;94764.03;;;1.35;78.15
41234;BME280;26968;42.686;23.352;2023-03-16T09:11:29;94938.78;;;2.08;77.51
41234;BME280;26968;42.686;23.352;2023-03-16T09:13:58;94808.22;;;1.37;77.04
41234;BME280;26968;42.686;23.352;2023-03-16T09:16:26;94914.28;;;1.91;78.62
41234;BME280;26968;42.686;23.352;2023-03-16T09:18:52;94775.81;;;1.26;78.16
41234;BME280;26968;42.686;23.352;2023-03-16T09:21:18;94873.91;;;1.64;77.04
41234;BME280;26968;42.686;23.352;2023-03-16T09:23:47;94871.88;;;1.66;76.88
41234;BME280;26968;42.686;23.352;2023-03-16T09:26:13;94783.63;;;1.14;76.39
41234;BME280;26968;42.686;23.352;2023-03-16T09:28:40;94852.22;;;1.51;76.15
41234;BME280;26968;42.686;23.352;2023-03-16T09:31:07;94911.25;;;1.82;76.88
41234;BME280;26968;42.686;23.352;2023-03-16T09:33:33;94895.31;;;1.84;78.97
41234;BME280;26968;42.686;23.352;2023-03-16T09:36:00;94898.38;;;1.92;78.68
41234;BME280;26968;42.686;23.352;2023-03-16T09:38:26;94851.09;;;1.71;78.92
41234;BME280;26968;42.686;23.352;2023-03-16T09:41:02;94906.03;;;2.06;79.05
41234;BME280;26968;42.686;23.352;2023-03-16T09:43:48;94881.56;;;1.88;77.23
41234;BME280;26968;42.686;23.352;2023-03-16T09:46:23;94902.03;;;2.03;77.37
41234;BME280;26968;42.686;23.352;2023-03-16T09:48:49;94730.81;;;1.01;77.42
41234;BME280;26968;42.686;23.352;2023-03-16T09:51:28;94827.66;;;1.76;79.12
41234;BME280;26968;42.686;23.352;2023-03-16T09:54:01;94875.44;;;1.94;78.41
41234;BME280;26968;42.686;23.352;2023-03-16T09:56:32;94765.47;;;1.20;77.56
41234;BME280;26968;42.686;23.352;2023-03-16T09:59:01;94808.22;;;1.37;77.65
41234;BME280;26968;42.686;23.352;2023-03-16T10:05:06;94868.72;;;1.75;80.94
41234;BME280;26968;42.686;23.352;2023-03-16T10:07:55;94888.59;;;1.76;81.15
41234;BME280;26968;42.686;23.352;2023-03-16T10:11:02;94886.09;;;1.70;79.99
41234;BME280;26968;42.686;23.352;2023-03-16T10:13:35;94895.63;;;1.76;80.90
41234;BME280;26968;42.686;23.352;2023-03-16T10:16:16;94869.41;;;1.82;80.35
41234;BME280;26968;42.686;23.352;2023-03-16T10:18:47;94852.00;;;1.65;79.04
41234;BME280;26968;42.686;23.352;2023-03-16T10:21:15;94907.84;;;2.17;79.85
41234;BME280;26968;42.686;23.352;2023-03-16T10:23:46;94892.38;;;2.15;79.58
41234;BME280;26968;42.686;23.352;2023-03-16T10:26:19;94911.25;;;2.29;78.06
41234;BME280;26968;42.686;23.352;2023-03-16T10:28:47;94835.84;;;1.91;78.07
41234;BME280;26968;42.686;23.352;2023-03-16T10:31:13;94786.72;;;1.46;76.24
41234;BME280;26968;42.686;23.352;2023-03-16T10:33:40;94818.00;;;1.65;76.51
41234;BME280;26968;42.686;23.352;2023-03-16T10:36:17;94913.53;;;2.25;76.42
41234;BME280;26968;42.686;23.352;2023-03-16T10:38:55;94912.06;;;2.41;78.45
41234;BME280;26968;42.686;23.352;2023-03-16T10:41:27;94912.97;;;2.35;76.90
41234;BME280;26968;42.686;23.352;2023-03-16T10:43:56;94891.81;;;2.25;77.25
41234;BME280;26968;42.686;23.352;2023-03-16T10:46:25;94876.09;;;2.25;76.67
41234;BME280;26968;42.686;23.352;2023-03-16T10:48:54;94920.81;;;2.47;76.40
41234;BME280;26968;42.686;23.352;2023-03-16T10:51:25;94805.97;;;1.75;76.59
41234;BME280;26968;42.686;23.352;2023-03-16T10:53:52;94914.53;;;2.48;77.83
41234;BME280;26968;42.686;23.352;2023-03-16T10:56:22;94914.66;;;2.53;78.14
41234;BME280;26968;42.686;23.352;2023-03-16T10:58:49;94828.25;;;1.89;78.23
41234;BME280;26968;42.686;23.352;2023-03-16T11:01:23;94934.25;;;2.50;77.48
41234;BME280;26968;42.686;23.352;2023-03-16T11:03:53;94906.25;;;2.27;76.01
41234;BME280;26968;42.686;23.352;2023-03-16T11:06:30;94869.84;;;2.14;76.24
41234;BME280;26968;42.686;23.352;2023-03-16T11:09:05;94851.44;;;1.98;76.01
41234;BME280;26968;42.686;23.352;2023-03-16T11:11:33;94924.09;;;2.54;75.69
41234;BME280;26968;42.686;23.352;2023-03-16T11:14:02;94873.25;;;2.15;75.52
41234;BME280;26968;42.686;23.352;2023-03-16T11:16:51;94856.22;;;2.12;74.72
41234;BME280;26968;42.686;23.352;2023-03-16T11:19:48;94901.00;;;2.51;75.95
41234;BME280;26968;42.686;23.352;2023-03-16T11:22:17;94911.91;;;2.71;75.32
41234;BME280;26968;42.686;23.352;2023-03-16T11:25:10;94797.41;;;2.03;74.57
41234;BME280;26968;42.686;23.352;2023-03-16T11:30:34;94925.78;;;2.71;73.93
41234;BME280;26968;42.686;23.352;2023-03-16T11:33:08;94919.19;;;2.69;74.26
41234;BME280;26968;42.686;23.352;2023-03-16T11:38:33;94899.38;;;2.73;75.10
41234;BME280;26968;42.686;23.352;2023-03-16T11:41:03;94867.53;;;2.53;75.16
41234;BME280;26968;42.686;23.352;2023-03-16T11:43:54;94919.72;;;2.83;74.99
41234;BME280;26968;42.686;23.352;2023-03-16T11:46:27;94872.41;;;2.61;74.47
41234;BME280;26968;42.686;23.352;2023-03-16T11:49:29;94910.03;;;2.95;74.60
41234;BME280;26968;42.686;23.352;2023-03-16T11:52:15;94911.63;;;2.96;73.50
41234;BME280;26968;42.686;23.352;2023-03-16T12:00:35;94925.91;;;2.65;74.27
41234;BME280;26968;42.686;23.352;2023-03-16T12:10:41;94829.13;;;1.83;75.41
41234;BME280;26968;42.686;23.352;2023-03-16T12:13:29;94938.00;;;2.43;74.65
41234;BME280;26968;42.686;23.352;2023-03-16T12:19:11;94836.31;;;1.65;74.84
41234;BME280;26968;42.686;23.352;2023-03-16T12:21:42;94799.69;;;1.53;75.57
41234;BME280;26968;42.686;23.352;2023-03-16T12:24:18;94953.44;;;2.44;76.23
41234;BME280;26968;42.686;23.352;2023-03-16T12:26:44;94866.66;;;1.77;75.77
41234;BME280;26968;42.686;23.352;2023-03-16T12:31:50;94972.91;;;2.25;74.57
41234;BME280;26968;42.686;23.352;2023-03-16T12:34:48;94948.47;;;2.19;76.11
41234;BME280;26968;42.686;23.352;2023-03-16T12:37:26;94969.19;;;2.21;76.86
41234;BME280;26968;42.686;23.352;2023-03-16T12:40:03;94978.69;;;2.15;75.13
41234;BME280;26968;42.686;23.352;2023-03-16T12:42:58;94877.50;;;1.39;75.77
41234;BME280;26968;42.686;23.352;2023-03-16T12:48:22;94971.66;;;2.04;75.52
41234;BME280;26968;42.686;23.352;2023-03-16T12:50:53;94974.25;;;2.04;75.75
41234;BME280;26968;42.686;23.352;2023-03-16T12:53:39;94872.41;;;1.14;76.24
41234;BME280;26968;42.686;23.352;2023-03-16T12:56:06;94974.69;;;1.89;77.86
41234;BME280;26968;42.686;23.352;2023-03-16T12:58:34;94856.53;;;1.16;78.29
41234;BME280;26968;42.686;23.352;2023-03-16T13:01:01;94859.72;;;1.18;78.89
41234;BME280;26968;42.686;23.352;2023-03-16T13:03:32;94936.75;;;1.57;80.52
41234;BME280;26968;42.686;23.352;2023-03-16T13:05:58;94895.56;;;1.29;80.26
41234;BME280;26968;42.686;23.352;2023-03-16T13:08:25;94982.28;;;1.79;81.82
41234;BME280;26968;42.686;23.352;2023-03-16T13:11:06;94983.19;;;1.85;82.85
41234;BME280;26968;42.686;23.352;2023-03-16T13:13:49;94981.97;;;1.87;83.61
41234;BME280;26968;42.686;23.352;2023-03-16T13:16:30;94887.22;;;1.21;83.60
41234;BME280;26968;42.686;23.352;2023-03-16T13:18:57;94919.66;;;1.43;84.24
41234;BME280;26968;42.686;23.352;2023-03-16T13:21:39;94905.72;;;1.19;84.09
41234;BME280;26968;42.686;23.352;2023-03-16T13:26:41;94888.88;;;1.15;84.63
41234;BME280;26968;42.686;23.352;2023-03-16T13:29:23;95001.88;;;1.88;85.01
41234;BME280;26968;42.686;23.352;2023-03-16T13:31:51;94925.59;;;1.50;85.34
41234;BME280;26968;42.686;23.352;2023-03-16T13:34:22;94929.22;;;1.49;85.13
41234;BME280;26968;42.686;23.352;2023-03-16T13:36:53;94997.91;;;1.98;85.67
41234;BME280;26968;42.686;23.352;2023-03-16T13:39:30;94996.66;;;2.00;86.21
41234;BME280;26968;42.686;23.352;2023-03-16T13:42:16;95002.09;;;1.99;85.65
41234;BME280;26968;42.686;23.352;2023-03-16T13:44:42;94989.22;;;1.85;85.11
41234;BME280;26968;42.686;23.352;2023-03-16T13:47:16;94908.84;;;1.28;85.24
41234;BME280;26968;42.686;23.352;2023-03-16T13:50:11;95007.25;;;2.05;85.49